createdAt,value
2022-10-22T00:02:09.879Z,17.35
2022-10-22T00:05:12.952Z,20.20
2022-10-22T00:08:17.217Z,21.87
2022-10-22T00:11:20.762Z,19.50
2022-10-22T00:14:23.590Z,26.57
2022-10-22T00:17:26.690Z,19.45
2022-10-22T00:20:29.314Z,21.75
2022-10-22T00:23:32.186Z,25.27
2022-10-22T00:26:35.041Z,16.95
2022-10-22T00:29:37.939Z,20.37
2022-10-22T00:32:40.752Z,19.75
2022-10-22T00:35:45.405Z,16.25
2022-10-22T00:38:49.086Z,16.08
2022-10-22T00:41:54.601Z,14.13
2022-10-22T00:45:08.350Z,16.40
2022-10-22T00:48:20.955Z,28.02
2022-10-22T00:51:27.764Z,24.55
2022-10-22T00:54:30.765Z,20.35
2022-10-22T00:57:34.937Z,20.90
2022-10-22T01:00:38.460Z,17.60
2022-10-22T01:03:41.107Z,14.25
2022-10-22T01:06:43.875Z,16.10
2022-10-22T01:10:14.661Z,13.90
2022-10-22T01:14:04.700Z,17.95
2022-10-22T01:17:24.997Z,16.47
2022-10-22T01:20:55.420Z,17.65
2022-10-22T01:24:27.231Z,16.05
2022-10-22T01:27:36.184Z,15.30
2022-10-22T01:30:40.334Z,19.80
2022-10-22T01:33:51.339Z,17.43
2022-10-22T01:36:55.806Z,19.02
2022-10-22T01:40:01.955Z,16.25
2022-10-22T01:43:07.069Z,22.98
2022-10-22T01:46:11.665Z,16.70
2022-10-22T01:49:14.316Z,18.67
2022-10-22T01:52:26.230Z,15.32
2022-10-22T01:55:43.162Z,14.35
2022-10-22T01:58:55.911Z,14.02
2022-10-22T02:02:10.812Z,12.93
2022-10-22T02:05:30.269Z,18.53
2022-10-22T02:08:36.580Z,13.88
2022-10-22T02:11:41.796Z,14.18
2022-10-22T02:14:45.697Z,17.65
2022-10-22T02:17:50.745Z,24.67
2022-10-22T02:20:54.744Z,18.77
2022-10-22T02:23:57.753Z,20.08
2022-10-22T02:27:15.406Z,25.67
2022-10-22T02:30:21.382Z,16.42
2022-10-22T02:33:29.966Z,15.77
2022-10-22T02:36:33.064Z,18.63
2022-10-22T02:39:38.551Z,16.12
2022-10-22T02:42:42.517Z,14.93
2022-10-22T02:45:47.666Z,15.10
2022-10-22T02:48:50.681Z,15.07
2022-10-22T02:51:53.305Z,17.33
2022-10-22T02:54:55.956Z,16.60
2022-10-22T02:57:58.676Z,17.55
2022-10-22T03:01:02.053Z,15.90
2022-10-22T03:04:05.522Z,18.73
2022-10-22T03:07:10.090Z,17.27
2022-10-22T03:10:13.613Z,17.27
2022-10-22T03:13:18.071Z,17.90
2022-10-22T03:16:20.639Z,21.23
2022-10-22T03:19:24.860Z,21.05
2022-10-22T03:22:31.931Z,17.67
2022-10-22T03:25:35.963Z,18.10
2022-10-22T03:28:41.462Z,20.25
2022-10-22T03:31:45.120Z,19.60
2022-10-22T03:34:48.481Z,16.60
2022-10-22T03:37:51.824Z,17.73
2022-10-22T03:40:54.508Z,19.33
2022-10-22T03:43:58.051Z,18.75
2022-10-22T03:47:02.739Z,16.90
2022-10-22T03:50:06.446Z,18.55
2022-10-22T03:53:10.694Z,17.70
2022-10-22T03:56:13.710Z,17.37
2022-10-22T03:59:16.496Z,16.95
2022-10-22T04:02:19.417Z,15.63
2022-10-22T04:05:23.485Z,15.27
2022-10-22T04:08:26.137Z,16.93
2022-10-22T04:11:28.959Z,15.43
2022-10-22T04:14:32.955Z,15.85
2022-10-22T04:17:37.038Z,15.77
2022-10-22T04:20:41.870Z,14.85
2022-10-22T04:23:51.048Z,19.97
2022-10-22T04:26:55.832Z,16.40
2022-10-22T04:29:59.259Z,16.92
2022-10-22T04:33:06.374Z,16.95
2022-10-22T04:39:22.556Z,18.63
2022-10-22T04:42:25.666Z,16.60
2022-10-22T04:45:28.838Z,15.82
2022-10-22T04:48:31.751Z,15.85
2022-10-22T04:51:34.184Z,21.90
2022-10-22T04:54:36.954Z,15.67
2022-10-22T04:57:40.365Z,16.40
2022-10-22T05:00:45.039Z,17.20
2022-10-22T05:03:58.275Z,17.67
2022-10-22T05:07:02.090Z,16.58
2022-10-22T05:10:10.071Z,19.20
2022-10-22T05:13:13.660Z,19.42
2022-10-22T05:16:18.243Z,19.27
2022-10-22T05:19:26.056Z,19.65
2022-10-22T05:22:30.451Z,18.95
2022-10-22T05:25:40.054Z,19.27
2022-10-22T05:28:45.520Z,19.73
2022-10-22T05:31:50.351Z,19.65
2022-10-22T05:34:56.038Z,24.95
2022-10-22T05:38:02.575Z,35.50
2022-10-22T05:41:10.983Z,25.03
2022-10-22T05:44:15.811Z,30.65
2022-10-22T05:47:18.553Z,30.27
2022-10-22T05:50:21.924Z,29.33
2022-10-22T05:53:26.149Z,24.87
2022-10-22T05:56:32.111Z,35.30
2022-10-22T05:59:35.800Z,19.92
2022-10-22T06:02:39.494Z,19.52
2022-10-22T06:05:47.080Z,19.35
2022-10-22T06:08:56.346Z,19.45
2022-10-22T06:12:00.500Z,21.70
2022-10-22T06:15:05.132Z,20.27
2022-10-22T06:18:10.102Z,24.90
2022-10-22T06:21:16.167Z,23.58
2022-10-22T06:24:20.038Z,21.95
2022-10-22T06:27:24.067Z,18.40
2022-10-22T06:30:27.319Z,21.20
2022-10-22T06:33:34.156Z,22.75
2022-10-22T06:36:43.765Z,24.35
2022-10-22T06:39:49.382Z,27.85
2022-10-22T06:42:53.036Z,22.57
2022-10-22T06:46:00.881Z,27.45
2022-10-22T06:49:06.252Z,20.60
2022-10-22T06:52:11.280Z,27.20
2022-10-22T06:55:16.051Z,30.80
2022-10-22T06:58:19.555Z,22.13
2022-10-22T07:01:28.455Z,23.05
2022-10-22T07:04:38.048Z,21.37
2022-10-22T07:07:40.985Z,23.83
2022-10-22T07:10:45.188Z,22.13
2022-10-22T07:13:51.024Z,24.77
2022-10-22T07:16:59.099Z,18.92
2022-10-22T07:20:05.980Z,22.48
2022-10-22T07:23:09.305Z,20.40
2022-10-22T07:26:24.991Z,18.80
2022-10-22T07:29:35.283Z,20.07
2022-10-22T07:32:46.966Z,19.40
2022-10-22T07:35:52.012Z,18.45
2022-10-22T07:38:57.658Z,17.00
2022-10-22T07:42:04.342Z,15.50
2022-10-22T07:45:08.536Z,17.37
2022-10-22T07:48:12.905Z,16.05
2022-10-22T07:51:16.767Z,20.55
2022-10-22T07:54:22.201Z,22.25
2022-10-22T07:57:33.073Z,16.92
2022-10-22T08:00:43.228Z,17.47
2022-10-22T08:03:46.673Z,20.15
2022-10-22T08:06:52.094Z,15.50
2022-10-22T08:09:55.497Z,15.73
2022-10-22T08:13:00.200Z,17.60
2022-10-22T08:16:04.260Z,16.93
2022-10-22T08:27:31.313Z,17.50
2022-10-22T08:30:38.682Z,17.73
2022-10-22T08:33:42.571Z,15.07
2022-10-22T08:36:46.055Z,18.77
2022-10-22T08:39:51.097Z,15.00
2022-10-22T08:43:30.983Z,15.25
2022-10-22T08:46:56.043Z,17.15
2022-10-22T08:50:01.083Z,20.60
2022-10-22T08:53:12.684Z,16.60
2022-10-22T08:56:16.524Z,24.20
2022-10-22T08:59:56.083Z,18.70
2022-10-22T09:03:10.648Z,20.02
2022-10-22T09:06:29.029Z,23.00
2022-10-22T09:09:40.989Z,18.65
2022-10-22T09:12:47.114Z,20.25
2022-10-22T09:15:58.939Z,20.73
2022-10-22T09:19:25.043Z,19.25
2022-10-22T09:22:55.865Z,21.23
2022-10-22T09:26:02.037Z,23.83
2022-10-22T09:29:07.262Z,24.90
2022-10-22T09:32:11.974Z,20.92
2022-10-22T09:35:15.442Z,19.58
2022-10-22T09:38:23.389Z,21.30
2022-10-22T09:41:33.104Z,19.45
2022-10-22T09:44:42.713Z,18.83
2022-10-22T09:48:01.404Z,20.80
2022-10-22T09:51:20.530Z,19.17
2022-10-22T09:54:27.992Z,25.60
2022-10-22T09:57:40.935Z,22.55
2022-10-22T10:00:55.137Z,23.65
2022-10-22T10:04:09.387Z,24.85
2022-10-22T10:07:24.055Z,20.70
2022-10-22T10:10:49.198Z,20.90
2022-10-22T10:14:07.031Z,22.52
2022-10-22T10:17:16.314Z,23.90
2022-10-22T10:20:54.523Z,22.52
2022-10-22T10:24:11.536Z,20.40
2022-10-22T10:27:59.502Z,24.17
2022-10-22T10:31:34.110Z,21.85
2022-10-22T10:35:06.308Z,23.25
2022-10-22T10:38:37.078Z,23.48
2022-10-22T10:42:22.972Z,23.35
2022-10-22T10:45:55.652Z,23.13
2022-10-22T10:49:36.048Z,19.65
2022-10-22T10:52:57.055Z,22.30
2022-10-22T10:56:40.497Z,17.50
2022-10-22T11:00:10.112Z,21.42
2022-10-22T11:03:27.044Z,22.63
2022-10-22T11:06:35.248Z,25.67
2022-10-22T11:09:48.320Z,26.55
2022-10-22T11:12:57.280Z,23.90
2022-10-22T11:16:22.489Z,19.77
2022-10-22T11:19:51.537Z,23.67
2022-10-22T11:23:19.679Z,22.37
2022-10-22T11:26:37.664Z,23.25
2022-10-22T11:29:52.066Z,22.25
2022-10-22T11:33:03.075Z,22.67
2022-10-22T11:36:09.022Z,17.83
2022-10-22T11:39:49.068Z,19.40
2022-10-22T11:43:05.231Z,18.35
2022-10-22T11:46:28.730Z,20.80
2022-10-22T11:49:47.035Z,23.67
2022-10-22T11:53:06.170Z,21.50
2022-10-22T11:56:15.038Z,22.83
2022-10-22T11:59:42.255Z,20.05
2022-10-22T12:02:46.035Z,23.65
2022-10-22T12:06:14.038Z,24.70
2022-10-22T12:09:19.994Z,27.97
2022-10-22T12:12:26.049Z,24.33
2022-10-22T12:15:29.780Z,26.70
2022-10-22T12:18:48.349Z,25.30
2022-10-22T12:22:26.364Z,22.75
2022-10-22T12:25:36.087Z,23.63
2022-10-22T12:28:40.808Z,25.12
2022-10-22T12:31:51.145Z,24.87
2022-10-22T12:34:56.449Z,24.80
2022-10-22T12:38:12.426Z,23.92
2022-10-22T12:41:17.246Z,23.30
2022-10-22T12:44:23.047Z,23.85
2022-10-22T12:47:32.210Z,24.70
2022-10-22T12:50:41.401Z,27.60
2022-10-22T12:53:56.952Z,23.62
2022-10-22T12:57:02.053Z,24.67
2022-10-22T13:00:23.157Z,23.55
2022-10-22T13:03:34.028Z,26.25
2022-10-22T13:06:45.883Z,27.20
2022-10-22T13:10:02.066Z,24.85
2022-10-22T13:13:36.091Z,20.63
2022-10-22T13:16:40.005Z,23.50
2022-10-22T13:20:05.483Z,23.33
2022-10-22T13:23:24.596Z,23.70
2022-10-22T13:26:37.717Z,25.95
2022-10-22T13:29:42.607Z,24.63
2022-10-22T13:33:04.237Z,29.42
2022-10-22T13:36:11.961Z,45.10
2022-10-22T13:39:22.345Z,43.22
2022-10-22T13:42:28.606Z,34.58
2022-10-22T13:45:32.022Z,33.67
2022-10-22T13:48:37.242Z,30.25
2022-10-22T13:51:44.232Z,26.05
2022-10-22T13:54:47.761Z,33.15
2022-10-22T13:57:53.685Z,33.47
2022-10-22T14:01:10.651Z,29.13
2022-10-22T14:04:15.776Z,28.58
2022-10-22T14:07:23.111Z,27.92
2022-10-22T14:10:29.151Z,31.33
2022-10-22T14:13:35.109Z,27.75
2022-10-22T14:16:42.069Z,28.53
2022-10-22T14:19:51.032Z,25.17
2022-10-22T14:22:57.481Z,19.75
2022-10-22T14:26:06.035Z,17.77
2022-10-22T14:29:11.855Z,21.95
2022-10-22T14:32:21.503Z,21.97
2022-10-22T14:35:34.440Z,23.30
2022-10-22T14:38:45.100Z,22.48
2022-10-22T14:41:52.068Z,19.83
2022-10-22T14:45:03.969Z,19.42
2022-10-22T14:48:16.178Z,20.67
2022-10-22T14:51:25.081Z,29.63
2022-10-22T14:54:34.217Z,27.42
2022-10-22T14:57:46.266Z,23.60
2022-10-22T15:00:50.114Z,24.95
2022-10-22T15:04:00.197Z,25.03
2022-10-22T15:07:10.096Z,18.48
2022-10-22T15:10:15.021Z,19.30
2022-10-22T15:13:24.956Z,26.15
2022-10-22T15:16:28.722Z,24.37
2022-10-22T15:19:36.202Z,22.90
2022-10-22T15:22:40.362Z,23.50
2022-10-22T15:25:44.758Z,23.70
2022-10-22T15:28:57.090Z,20.77
2022-10-22T15:32:11.083Z,32.25
2022-10-22T15:35:15.037Z,24.40
2022-10-22T15:38:33.569Z,23.25
2022-10-22T15:41:40.220Z,24.17
2022-10-22T15:44:45.192Z,21.17
2022-10-22T15:47:51.977Z,21.45
2022-10-22T15:50:58.149Z,21.63
2022-10-22T15:54:10.149Z,19.37
2022-10-22T15:57:20.161Z,21.15
2022-10-22T16:00:27.375Z,20.88
2022-10-22T16:03:36.047Z,19.77
2022-10-22T16:06:46.310Z,23.17
2022-10-22T16:10:01.689Z,23.55
2022-10-22T16:13:06.043Z,24.37
2022-10-22T16:16:12.066Z,23.45
2022-10-22T16:19:19.054Z,22.08
2022-10-22T16:22:32.251Z,24.70
2022-10-22T16:25:40.120Z,25.70
2022-10-22T16:28:51.058Z,24.42
2022-10-22T16:32:03.052Z,26.48
2022-10-22T16:35:11.625Z,27.58
2022-10-22T16:38:20.315Z,26.10
2022-10-22T16:41:35.174Z,28.73
2022-10-22T16:44:39.023Z,25.35
2022-10-22T16:47:47.034Z,25.75
2022-10-22T16:50:58.085Z,26.10
2022-10-22T16:54:11.343Z,30.63
2022-10-22T16:57:19.600Z,30.52
2022-10-22T17:00:29.493Z,34.00
2022-10-22T17:03:35.069Z,29.92
2022-10-22T17:06:42.034Z,30.77
2022-10-22T17:09:52.058Z,32.40
2022-10-22T17:13:02.454Z,31.20
2022-10-22T17:16:12.028Z,31.05
2022-10-22T17:19:25.275Z,33.10
2022-10-22T17:22:34.474Z,27.77
2022-10-22T17:25:51.113Z,29.27
2022-10-22T17:28:56.659Z,36.90
2022-10-22T17:32:11.969Z,33.70
2022-10-22T17:35:20.286Z,32.17
2022-10-22T17:38:29.199Z,32.35
2022-10-22T17:41:39.899Z,39.33
2022-10-22T17:44:47.065Z,34.15
2022-10-22T17:47:54.249Z,34.15
2022-10-22T17:50:59.412Z,61.88
2022-10-22T17:54:07.372Z,62.17
2022-10-22T17:57:23.094Z,33.63
2022-10-22T18:00:32.514Z,32.53
2022-10-22T18:03:43.453Z,34.67
2022-10-22T18:06:50.572Z,34.65
2022-10-22T18:09:55.019Z,33.25
2022-10-22T18:12:58.698Z,29.87
2022-10-22T18:16:12.992Z,30.92
2022-10-22T18:19:25.999Z,29.20
2022-10-22T18:22:36.966Z,32.53
2022-10-22T18:25:46.971Z,32.55
2022-10-22T18:28:54.081Z,27.43
2022-10-22T18:32:13.266Z,31.70
2022-10-22T18:35:28.416Z,29.00
2022-10-22T18:38:36.048Z,27.48
2022-10-22T18:41:39.737Z,32.22
2022-10-22T18:44:48.988Z,30.57
2022-10-22T18:48:00.351Z,31.45
2022-10-22T18:51:11.200Z,30.10
2022-10-22T18:54:23.146Z,33.50
2022-10-22T18:57:29.559Z,29.83
2022-10-22T19:00:37.098Z,30.43
2022-10-22T19:03:56.964Z,33.40
2022-10-22T19:07:03.056Z,31.02
2022-10-22T19:10:13.954Z,29.67
2022-10-22T19:13:19.687Z,30.33
2022-10-22T19:16:24.314Z,32.10
2022-10-22T19:19:30.055Z,32.03
2022-10-22T19:22:34.043Z,31.75
2022-10-22T19:25:46.089Z,33.20
2022-10-22T19:29:03.147Z,31.90
2022-10-22T19:32:13.762Z,32.33
2022-10-22T19:35:18.242Z,32.25
2022-10-22T19:38:24.014Z,36.22
2022-10-22T19:41:36.095Z,32.42
2022-10-22T19:44:57.272Z,36.40
2022-10-22T19:48:01.182Z,37.03
2022-10-22T19:51:18.003Z,33.65
2022-10-22T19:54:23.054Z,32.38
2022-10-22T19:57:28.154Z,30.70
2022-10-22T20:00:35.167Z,31.20
2022-10-22T20:03:42.914Z,33.80
2022-10-22T20:06:56.972Z,30.23
2022-10-22T20:10:06.929Z,32.60
2022-10-22T20:13:15.014Z,34.97
2022-10-22T20:16:24.389Z,32.60
2022-10-22T20:19:31.034Z,35.60
2022-10-22T20:22:35.998Z,35.33
2022-10-22T20:25:44.071Z,34.92
2022-10-22T20:28:56.360Z,38.78
2022-10-22T20:32:08.744Z,37.58
2022-10-22T20:35:16.650Z,51.10
2022-10-22T20:38:19.783Z,43.72
2022-10-22T20:41:25.335Z,39.17
2022-10-22T20:44:38.751Z,42.47
2022-10-22T20:47:51.406Z,42.45
2022-10-22T20:51:00.701Z,45.50
2022-10-22T20:54:06.435Z,40.08
2022-10-22T20:57:09.721Z,41.08
2022-10-22T21:00:14.008Z,38.42
2022-10-22T21:03:17.559Z,36.30
2022-10-22T21:06:25.042Z,37.70
2022-10-22T21:09:28.998Z,36.55
2022-10-22T21:12:32.336Z,37.78
2022-10-22T21:15:42.947Z,36.80
2022-10-22T21:18:46.978Z,36.00
2022-10-22T21:21:49.738Z,35.40
2022-10-22T21:24:52.752Z,45.47
2022-10-22T21:27:55.739Z,43.53
2022-10-22T21:30:59.148Z,36.33
2022-10-22T21:34:02.542Z,35.35
2022-10-22T21:37:05.647Z,34.60
2022-10-22T21:40:08.757Z,33.67
2022-10-22T21:43:12.972Z,32.92
2022-10-22T21:46:24.142Z,32.42
2022-10-22T21:49:27.316Z,34.00
2022-10-22T21:52:30.055Z,32.90
2022-10-22T21:55:38.027Z,37.03
2022-10-22T21:58:41.086Z,32.67
2022-10-22T22:01:44.271Z,33.50
2022-10-22T22:04:48.021Z,31.45
2022-10-22T22:07:50.691Z,36.23
2022-10-22T22:11:01.004Z,32.30
2022-10-22T22:14:03.936Z,34.95
2022-10-22T22:17:07.624Z,32.78
2022-10-22T22:20:11.917Z,32.08
2022-10-22T22:23:17.244Z,32.77
2022-10-22T22:26:28.735Z,30.75
2022-10-22T22:29:32.940Z,33.45
2022-10-22T22:32:35.730Z,32.50
2022-10-22T22:38:48.412Z,33.67
2022-10-22T22:41:51.787Z,34.08
2022-10-22T22:44:55.243Z,31.37
2022-10-22T22:47:58.210Z,31.42
2022-10-22T22:51:04.664Z,31.95
2022-10-22T22:54:10.097Z,31.43
2022-10-22T22:57:14.274Z,31.42
2022-10-22T23:00:21.207Z,32.33
2022-10-22T23:03:24.206Z,33.47
2022-10-22T23:06:29.647Z,32.92
2022-10-22T23:09:32.618Z,32.67
2022-10-22T23:12:36.561Z,34.35
2022-10-22T23:15:40.525Z,35.20
2022-10-22T23:18:46.354Z,35.53
2022-10-22T23:21:51.735Z,42.22
2022-10-22T23:24:54.825Z,43.43
2022-10-22T23:27:57.538Z,39.53
2022-10-22T23:31:05.109Z,37.45
2022-10-22T23:34:08.524Z,31.45
2022-10-22T23:37:12.309Z,34.78
2022-10-22T23:40:14.884Z,32.03
2022-10-22T23:43:17.559Z,33.17
2022-10-22T23:46:20.155Z,32.35
2022-10-22T23:49:23.567Z,32.25
2022-10-22T23:52:26.554Z,29.63
2022-10-22T23:55:29.713Z,28.97
2022-10-22T23:58:34.178Z,31.98
